Time;durP1;ratioP1;P1;durP2;ratioP2;P2;SDS_P1;SDS_P2;PMS_P1;PMS_P2;Temp;Humidity;BMP_temperature;BMP_pressure;BME280_temperature;BME280_humidity;BME280_pressure;Samples;Min_cycle;Max_cycle;Signal;HPM_P1;HPM_P2
2023/02/08 00:02:08;;;;;;;45.57;31.80;;;-1.30;1.00;;;;;;5035886;28;20196;-52
2023/02/08 00:04:33;;;;;;;49.00;30.97;;;-1.40;1.00;;;;;;5033047;28;20237;-52
2023/02/08 00:06:59;;;;;;;45.37;30.87;;;-1.40;1.00;;;;;;5041512;28;20194;-54
2023/02/08 00:09:25;;;;;;;45.17;31.30;;;-1.40;1.00;;;;;;5036085;28;20195;-55
2023/02/08 00:11:50;;;;;;;43.60;30.07;;;-1.40;1.00;;;;;;5035347;28;20186;-55
2023/02/08 00:14:16;;;;;;;44.03;30.60;;;-1.40;1.00;;;;;;5040488;28;20190;-56
2023/02/08 00:16:41;;;;;;;39.93;28.20;;;-1.40;1.00;;;;;;5032859;28;20746;-52
2023/02/08 00:19:07;;;;;;;46.27;31.30;;;-1.50;1.00;;;;;;5035080;28;20295;-53
2023/02/08 00:21:33;;;;;;;45.87;30.90;;;-1.50;1.00;;;;;;5034894;28;20188;-52
2023/02/08 00:23:58;;;;;;;39.60;26.70;;;-1.50;1.00;;;;;;5035261;28;20686;-52
2023/02/08 00:26:24;;;;;;;40.10;27.00;;;-1.50;1.00;;;;;;5037077;28;20280;-52
2023/02/08 00:28:49;;;;;;;40.97;27.63;;;-1.40;1.00;;;;;;5046273;28;20238;-53
2023/02/08 00:31:15;;;;;;;44.70;28.87;;;-1.40;1.00;;;;;;5047924;28;20184;-52
2023/02/08 00:33:41;;;;;;;39.20;26.73;;;-1.50;1.00;;;;;;5040535;28;20260;-55
2023/02/08 00:36:07;;;;;;;40.83;28.00;;;-1.50;1.00;;;;;;5042194;28;20197;-53
2023/02/08 00:38:33;;;;;;;47.13;28.93;;;-1.50;1.00;;;;;;5045091;28;20323;-52
2023/02/08 00:40:59;;;;;;;41.90;25.33;;;-1.50;1.00;;;;;;5039229;28;20541;-53
2023/02/08 00:43:25;;;;;;;44.40;30.70;;;-1.50;1.00;;;;;;5039369;28;20499;-53
2023/02/08 00:45:55;;;;;;;41.00;28.93;;;-1.60;1.00;;;;;;5043753;28;20192;-55
2023/02/08 00:48:20;;;;;;;40.83;27.70;;;-1.60;1.00;;;;;;5037493;28;20208;-56
2023/02/08 00:51:00;;;;;;;39.20;28.50;;;-1.60;1.00;;;;;;5035551;28;20478;-55
2023/02/08 00:53:26;;;;;;;42.23;27.63;;;-1.60;1.00;;;;;;5040810;28;20483;-53
2023/02/08 00:55:53;;;;;;;43.93;28.00;;;-1.70;1.00;;;;;;5052168;28;20461;-54
2023/02/08 00:58:18;;;;;;;39.60;26.70;;;-1.70;1.00;;;;;;5041396;28;20259;-54
2023/02/08 01:00:44;;;;;;;44.97;29.03;;;-1.70;1.00;;;;;;5034250;28;20452;-53
2023/02/08 01:03:10;;;;;;;41.90;27.63;;;-1.80;1.00;;;;;;5040752;28;20462;-53
2023/02/08 01:05:38;;;;;;;43.30;28.60;;;-1.80;1.00;;;;;;5035591;28;20651;-51
2023/02/08 01:08:04;;;;;;;46.30;29.00;;;-1.80;1.00;;;;;;5034206;28;20189;-51
2023/02/08 01:10:31;;;;;;;38.33;25.80;;;-1.80;1.00;;;;;;5032563;28;20546;-54
2023/02/08 01:12:57;;;;;;;39.93;27.63;;;-1.80;1.00;;;;;;5033972;28;20195;-54
2023/02/08 01:15:22;;;;;;;42.33;27.43;;;-1.80;1.00;;;;;;5033762;28;20504;-53
2023/02/08 01:17:55;;;;;;;40.57;26.93;;;-1.80;1.00;;;;;;5034974;28;20189;-52
2023/02/08 01:20:22;;;;;;;42.03;26.80;;;-1.90;1.00;;;;;;5034771;28;20204;-55
2023/02/08 01:22:47;;;;;;;39.17;27.83;;;-1.90;1.00;;;;;;5034206;28;20737;-52
2023/02/08 01:25:13;;;;;;;42.33;26.90;;;-1.90;1.00;;;;;;5032623;28;21078;-54
2023/02/08 01:27:39;;;;;;;38.00;26.00;;;-1.90;1.00;;;;;;5042834;28;20189;-55
2023/02/08 01:30:05;;;;;;;42.73;26.93;;;-1.90;1.00;;;;;;5043497;28;20467;-55
2023/02/08 01:32:31;;;;;;;40.30;27.57;;;-2.00;1.00;;;;;;5044215;28;20182;-53
2023/02/08 01:34:56;;;;;;;38.93;26.30;;;-2.00;1.00;;;;;;5037446;28;20509;-55
2023/02/08 01:37:22;;;;;;;41.53;28.93;;;-2.00;1.00;;;;;;5048130;28;20661;-53
2023/02/08 01:39:48;;;;;;;39.03;26.70;;;-2.00;1.00;;;;;;5051321;28;20189;-54
2023/02/08 01:42:15;;;;;;;41.00;29.20;;;-2.00;1.00;;;;;;5045488;28;20254;-52
2023/02/08 01:45:14;;;;;;;40.10;27.33;;;-2.10;1.00;;;;;;5046503;28;20204;-54
2023/02/08 01:47:42;;;;;;;40.27;26.50;;;-2.10;1.00;;;;;;5041603;28;20444;-52
2023/02/08 01:50:08;;;;;;;41.90;25.67;;;-2.10;1.00;;;;;;5044326;28;20975;-54
2023/02/08 01:52:34;;;;;;;35.90;25.20;;;-2.00;1.00;;;;;;5033748;28;21115;-51
2023/02/08 01:55:08;;;;;;;42.50;28.70;;;-2.10;1.00;;;;;;5034176;28;20451;-54
2023/02/08 01:57:34;;;;;;;32.77;25.77;;;-2.10;1.00;;;;;;5038607;28;20460;-53
2023/02/08 02:00:15;;;;;;;36.57;25.77;;;-2.10;1.00;;;;;;5038047;28;20451;-52
2023/02/08 02:02:44;;;;;;;39.07;27.03;;;-2.20;1.00;;;;;;5045296;28;20243;-54
2023/02/08 02:05:11;;;;;;;37.73;26.17;;;-2.10;1.00;;;;;;5043468;28;21182;-53
2023/02/08 02:07:37;;;;;;;40.10;26.70;;;-2.10;1.00;;;;;;5051702;28;21022;-53
2023/02/08 02:10:07;;;;;;;39.57;27.97;;;-2.10;1.00;;;;;;5051889;28;20461;-54
2023/02/08 02:12:35;;;;;;;34.30;25.87;;;-2.10;1.00;;;;;;5045368;28;21172;-54
2023/02/08 02:15:01;;;;;;;39.20;28.00;;;-2.20;1.00;;;;;;5046673;28;20964;-53
2023/02/08 02:17:27;;;;;;;41.40;28.17;;;-2.10;1.00;;;;;;5047917;28;20805;-54
2023/02/08 02:20:26;;;;;;;42.77;27.10;;;-2.10;1.00;;;;;;5045629;28;20504;-55
2023/02/08 02:23:00;;;;;;;44.37;28.27;;;-2.10;1.00;;;;;;5051942;28;20263;-59
2023/02/08 02:25:42;;;;;;;38.37;25.60;;;-2.10;1.00;;;;;;5052927;28;20955;-54
2023/02/08 02:28:38;;;;;;;37.07;25.30;;;-2.10;1.00;;;;;;5048727;28;20812;-54
2023/02/08 02:31:41;;;;;;;40.03;26.60;;;-2.20;1.00;;;;;;5059737;28;20445;-53
2023/02/08 02:34:25;;;;;;;41.07;25.90;;;-2.20;1.00;;;;;;5061853;28;20492;-55
2023/02/08 02:37:01;;;;;;;38.10;25.60;;;-2.30;1.00;;;;;;5049499;28;20435;-53
2023/02/08 02:39:47;;;;;;;34.80;25.10;;;-2.30;1.00;;;;;;5047048;28;20439;-54
2023/02/08 02:45:33;;;;;;;42.13;26.40;;;-2.30;1.00;;;;;;5042395;28;20482;-53
2023/02/08 02:48:27;;;;;;;42.00;27.27;;;-2.40;1.00;;;;;;5057448;28;20996;-52
2023/02/08 02:51:01;;;;;;;37.40;22.90;;;-2.40;1.00;;;;;;5039390;28;20530;-55
2023/02/08 02:53:48;;;;;;;37.40;25.67;;;-2.40;1.00;;;;;;5042499;28;20818;-54
2023/02/08 02:56:34;;;;;;;35.40;23.30;;;-2.40;1.00;;;;;;5049603;28;21519;-53
2023/02/08 02:59:04;;;;;;;37.37;23.83;;;-2.40;1.00;;;;;;5045176;28;20452;-53
2023/02/08 03:01:31;;;;;;;36.50;24.57;;;-2.40;1.00;;;;;;5048600;28;20506;-52
2023/02/08 03:03:57;;;;;;;35.20;23.27;;;-2.40;1.00;;;;;;5048983;28;20463;-55
2023/02/08 03:06:31;;;;;;;35.80;25.30;;;-2.50;1.00;;;;;;5040709;28;20927;-53
2023/02/08 03:09:24;;;;;;;37.17;23.47;;;-2.50;1.00;;;;;;5044544;28;20457;-55
2023/02/08 03:12:12;;;;;;;38.53;23.83;;;-2.40;1.00;;;;;;5046655;28;20445;-55
2023/02/08 03:14:57;;;;;;;36.63;24.50;;;-2.40;1.00;;;;;;5048574;28;20982;-55
2023/02/08 03:17:47;;;;;;;39.47;25.47;;;-2.50;1.00;;;;;;5045635;28;20451;-54
2023/02/08 03:20:28;;;;;;;42.13;26.27;;;-2.40;1.00;;;;;;5044043;28;20447;-51
2023/02/08 03:23:08;;;;;;;33.20;22.37;;;-2.40;1.00;;;;;;5047382;28;20443;-54
2023/02/08 03:26:33;;;;;;;38.17;24.20;;;-2.50;1.00;;;;;;5045120;28;20481;-53
2023/02/08 03:29:17;;;;;;;31.03;22.30;;;-2.50;1.00;;;;;;5019363;28;20513;-55
2023/02/08 03:31:47;;;;;;;42.40;26.23;;;-2.50;1.00;;;;;;5032287;28;20515;-53
2023/02/08 03:34:26;;;;;;;38.27;25.83;;;-2.50;1.00;;;;;;5037898;28;20463;-55
2023/02/08 03:36:58;;;;;;;36.07;24.67;;;-2.60;1.00;;;;;;5034482;28;20459;-54
2023/02/08 03:39:27;;;;;;;33.03;22.10;;;-2.50;1.00;;;;;;5033954;28;20952;-53
2023/02/08 03:41:57;;;;;;;42.30;25.53;;;-2.90;1.00;;;;;;5035345;28;20554;-55
2023/02/08 03:44:40;;;;;;;34.10;24.50;;;-2.50;1.00;;;;;;5033251;28;20477;-53
2023/02/08 03:47:20;;;;;;;36.60;23.53;;;-2.50;1.00;;;;;;5034886;28;20553;-53
2023/02/08 03:49:50;;;;;;;34.43;25.50;;;-2.50;1.00;;;;;;5034627;28;20444;-55
2023/02/08 03:52:17;;;;;;;42.60;24.73;;;-2.50;1.00;;;;;;5034973;28;20462;-54
2023/02/08 03:54:52;;;;;;;43.07;26.10;;;-2.50;1.00;;;;;;5036789;28;20477;-53
2023/02/08 03:57:28;;;;;;;41.00;25.63;;;-2.50;1.00;;;;;;5032992;28;20474;-56
2023/02/08 04:00:07;;;;;;;38.20;24.20;;;-2.50;1.00;;;;;;5038379;28;20458;-54
2023/02/08 04:02:39;;;;;;;38.67;24.63;;;-2.50;1.00;;;;;;5044428;28;22398;-54
2023/02/08 04:05:06;;;;;;;41.67;24.60;;;-2.50;1.00;;;;;;5047762;28;20475;-53
2023/02/08 04:07:32;;;;;;;36.60;24.00;;;-2.60;1.00;;;;;;5044510;28;20504;-55
2023/02/08 04:09:57;;;;;;;37.00;23.17;;;-2.50;1.00;;;;;;5043662;28;20447;-54
2023/02/08 04:12:23;;;;;;;37.53;25.13;;;-2.50;1.00;;;;;;5043912;28;20443;-55
2023/02/08 04:14:48;;;;;;;41.83;24.57;;;-2.60;1.00;;;;;;5037126;28;20213;-54
2023/02/08 04:17:14;;;;;;;41.20;24.17;;;-2.70;1.00;;;;;;5042697;28;20181;-52
2023/02/08 04:19:40;;;;;;;33.37;23.77;;;-2.60;1.00;;;;;;5045935;28;20190;-54
2023/02/08 04:22:06;;;;;;;39.07;24.40;;;-2.50;1.00;;;;;;5041293;28;20654;-53
2023/02/08 04:24:31;;;;;;;36.10;24.83;;;-2.50;1.00;;;;;;5040277;28;20224;-53
2023/02/08 04:26:57;;;;;;;33.67;24.00;;;-2.50;1.00;;;;;;5045860;28;20453;-54
2023/02/08 04:29:22;;;;;;;37.70;23.80;;;-2.50;1.00;;;;;;5043398;28;20190;-55
2023/02/08 04:31:48;;;;;;;34.27;22.27;;;-2.60;1.00;;;;;;5043921;28;20212;-56
2023/02/08 04:34:14;;;;;;;40.50;25.00;;;-2.60;1.00;;;;;;5042205;28;20253;-54
2023/02/08 04:36:40;;;;;;;34.20;23.27;;;-2.60;1.00;;;;;;5052319;28;20187;-51
2023/02/08 04:39:05;;;;;;;37.83;24.57;;;-2.60;1.00;;;;;;5039164;28;20442;-54
2023/02/08 04:41:31;;;;;;;36.63;23.07;;;-2.60;1.00;;;;;;5035551;28;20199;-53
2023/02/08 04:43:56;;;;;;;34.97;22.90;;;-2.60;1.00;;;;;;5033881;28;20236;-54
2023/02/08 04:46:22;;;;;;;37.73;23.77;;;-2.70;1.00;;;;;;5035283;28;20197;-54
2023/02/08 04:48:49;;;;;;;34.97;21.60;;;-2.70;1.00;;;;;;5041736;28;20742;-52
2023/02/08 04:51:14;;;;;;;33.17;22.87;;;-2.70;1.00;;;;;;5039652;28;20311;-55
2023/02/08 04:53:40;;;;;;;35.03;24.00;;;-1.80;1.00;;;;;;5038352;28;20508;-51
2023/02/08 04:56:06;;;;;;;39.33;24.07;;;-2.70;1.00;;;;;;5034596;28;20452;-54
2023/02/08 04:58:31;;;;;;;36.30;22.80;;;-2.70;1.00;;;;;;5037080;28;21694;-52
2023/02/08 05:00:57;;;;;;;35.57;24.77;;;-2.80;1.00;;;;;;5036533;28;21068;-54
2023/02/08 05:03:23;;;;;;;42.53;27.10;;;-2.90;1.00;;;;;;5033977;28;20191;-56
2023/02/08 05:06:06;;;;;;;36.97;23.70;;;-2.90;1.00;;;;;;5034458;28;20312;-57
2023/02/08 05:08:32;;;;;;;36.23;23.40;;;-2.90;1.00;;;;;;5032663;28;20633;-53
2023/02/08 05:10:57;;;;;;;38.97;25.17;;;-2.90;1.00;;;;;;5034675;28;20458;-50
2023/02/08 05:13:23;;;;;;;35.83;23.03;;;-2.90;1.00;;;;;;5035977;28;20204;-52
2023/02/08 05:15:48;;;;;;;38.60;23.67;;;-2.80;1.00;;;;;;5045481;28;20602;-53
2023/02/08 05:18:14;;;;;;;37.50;23.93;;;-2.80;1.00;;;;;;5049741;28;20229;-55
2023/02/08 05:20:43;;;;;;;35.10;22.10;;;-2.80;1.00;;;;;;5069280;28;20184;-56
2023/02/08 05:23:09;;;;;;;38.70;24.20;;;-2.80;1.00;;;;;;5042894;28;20219;-54
2023/02/08 05:25:36;;;;;;;35.17;22.27;;;-2.80;1.00;;;;;;5046880;28;20626;-53
2023/02/08 05:28:02;;;;;;;38.00;23.53;;;-2.80;1.00;;;;;;5046723;28;20197;-55
2023/02/08 05:30:28;;;;;;;36.53;22.70;;;-2.80;1.00;;;;;;5042637;28;20450;-55
2023/02/08 05:32:53;;;;;;;38.77;23.83;;;-2.80;1.00;;;;;;5041900;28;20453;-55
2023/02/08 05:35:19;;;;;;;40.00;24.00;;;-2.80;1.00;;;;;;5045051;28;20199;-52
2023/02/08 05:37:44;;;;;;;36.33;22.20;;;-2.90;1.00;;;;;;5045946;28;20203;-54
2023/02/08 05:40:11;;;;;;;38.93;22.60;;;-2.90;1.00;;;;;;5047633;28;20282;-55
2023/02/08 05:42:38;;;;;;;34.50;24.13;;;-2.90;1.00;;;;;;5048828;28;20394;-55
2023/02/08 05:45:04;;;;;;;35.77;24.37;;;-2.80;1.00;;;;;;5054143;28;20486;-54
2023/02/08 05:47:30;;;;;;;32.87;23.20;;;-2.80;1.00;;;;;;5041831;28;20775;-53
2023/02/08 05:49:55;;;;;;;34.87;22.17;;;-2.90;1.00;;;;;;5047237;28;20447;-54
2023/02/08 05:52:21;;;;;;;39.17;24.00;;;-2.80;1.00;;;;;;5046332;28;20185;-55
2023/02/08 05:54:46;;;;;;;38.10;23.47;;;-2.80;1.00;;;;;;5060146;28;20192;-53
2023/02/08 05:57:12;;;;;;;39.70;24.47;;;-2.90;1.00;;;;;;5050590;28;20194;-56
2023/02/08 05:59:37;;;;;;;39.13;23.87;;;-2.90;1.00;;;;;;5050137;28;20236;-55
2023/02/08 06:02:03;;;;;;;38.23;25.17;;;-2.90;1.00;;;;;;5047684;28;20184;-53
2023/02/08 06:04:29;;;;;;;37.00;23.27;;;-2.90;1.00;;;;;;5041859;28;20257;-54
2023/02/08 06:06:54;;;;;;;35.70;24.57;;;-2.80;1.00;;;;;;5045306;28;20670;-55
2023/02/08 06:09:20;;;;;;;42.30;25.57;;;-2.80;1.00;;;;;;5047713;28;20546;-56
2023/02/08 06:11:46;;;;;;;33.83;22.20;;;-2.80;1.00;;;;;;5050004;28;20212;-55
2023/02/08 06:14:12;;;;;;;41.57;23.83;;;-2.90;1.00;;;;;;5042701;28;20189;-53
2023/02/08 06:16:37;;;;;;;39.37;24.47;;;-2.90;1.00;;;;;;5047657;28;20202;-55
2023/02/08 06:19:03;;;;;;;42.97;25.50;;;-2.80;1.00;;;;;;5045680;28;20188;-54
2023/02/08 06:21:28;;;;;;;40.30;23.20;;;-2.80;1.00;;;;;;5050789;28;20189;-56
2023/02/08 06:23:54;;;;;;;40.00;24.33;;;-2.80;1.00;;;;;;5049035;28;20662;-55
2023/02/08 06:26:20;;;;;;;38.90;24.40;;;-2.80;1.00;;;;;;5046091;28;20615;-55
2023/02/08 06:28:45;;;;;;;38.13;23.70;;;-2.80;1.00;;;;;;5050839;28;20189;-55
2023/02/08 06:31:11;;;;;;;38.50;24.40;;;-2.70;1.00;;;;;;5052932;28;20590;-55
2023/02/08 06:33:36;;;;;;;40.50;25.10;;;-2.70;1.00;;;;;;5056971;28;20193;-55
2023/02/08 06:36:02;;;;;;;41.57;25.13;;;-2.70;1.00;;;;;;5046144;28;20188;-55
2023/02/08 06:38:28;;;;;;;40.27;24.47;;;-2.60;1.00;;;;;;5047471;28;20746;-56
2023/02/08 06:40:53;;;;;;;43.70;25.10;;;-2.50;1.00;;;;;;5063507;28;20225;-53
2023/02/08 06:43:19;;;;;;;41.80;24.83;;;-2.50;1.00;;;;;;5045886;28;20191;-54
2023/02/08 06:45:45;;;;;;;42.30;27.03;;;-2.50;1.00;;;;;;5046652;28;20377;-55
2023/02/08 06:48:12;;;;;;;45.47;25.90;;;-2.40;1.00;;;;;;5050243;28;20186;-53
2023/02/08 06:50:37;;;;;;;43.13;25.07;;;-2.20;1.00;;;;;;5049598;28;20471;-53
2023/02/08 06:53:03;;;;;;;48.03;28.77;;;-2.20;1.00;;;;;;5050331;28;20510;-53
2023/02/08 06:55:28;;;;;;;37.50;24.07;;;-2.20;1.00;;;;;;5061880;28;20185;-54
2023/02/08 06:57:54;;;;;;;44.90;24.00;;;-2.20;1.00;;;;;;5050815;28;20178;-55
2023/02/08 07:00:21;;;;;;;42.63;25.50;;;-2.10;1.00;;;;;;5047404;28;20210;-53
2023/02/08 07:02:47;;;;;;;42.37;25.07;;;-2.10;1.00;;;;;;5047070;28;20451;-52
2023/02/08 07:05:13;;;;;;;44.87;25.50;;;-2.10;1.00;;;;;;5043433;28;20479;-54
2023/02/08 07:07:39;;;;;;;48.03;28.57;;;-2.00;1.00;;;;;;5048164;28;20646;-53
2023/02/08 07:10:05;;;;;;;39.77;24.67;;;-1.90;1.00;;;;;;5046369;28;20447;-54
2023/02/08 07:12:35;;;;;;;45.53;23.00;;;-1.80;1.00;;;;;;5048805;28;20250;-56
2023/02/08 07:15:01;;;;;;;47.63;26.17;;;-1.80;1.00;;;;;;5054526;28;20449;-55
2023/02/08 07:17:26;;;;;;;39.90;24.87;;;-1.80;1.00;;;;;;5050532;28;20451;-52
2023/02/08 07:19:52;;;;;;;42.70;26.37;;;-1.70;1.00;;;;;;5048120;28;20639;-52
2023/02/08 07:22:18;;;;;;;46.50;27.03;;;-1.70;1.00;;;;;;5048058;28;20205;-53
2023/02/08 07:24:43;;;;;;;44.23;27.07;;;-1.70;1.00;;;;;;5053461;28;20208;-54
2023/02/08 07:27:11;;;;;;;42.17;26.63;;;-1.70;1.00;;;;;;5053782;28;20193;-53
2023/02/08 07:29:37;;;;;;;46.73;26.97;;;-1.70;1.00;;;;;;5047965;28;20208;-55
2023/02/08 07:32:04;;;;;;;49.77;27.33;;;-1.60;1.00;;;;;;5053676;28;20830;-53
2023/02/08 07:34:32;;;;;;;42.17;26.17;;;-1.50;1.00;;;;;;5048060;28;20447;-54
2023/02/08 07:36:58;;;;;;;44.33;27.40;;;-1.40;1.00;;;;;;5044092;28;20449;-55
2023/02/08 07:39:24;;;;;;;46.03;26.53;;;-1.40;1.00;;;;;;5048369;28;20485;-54
2023/02/08 07:41:49;;;;;;;42.10;26.30;;;-1.40;1.00;;;;;;5047755;28;20188;-56
2023/02/08 07:44:15;;;;;;;46.53;28.17;;;-1.10;1.00;;;;;;5050723;28;20466;-53
2023/02/08 07:46:40;;;;;;;42.23;26.40;;;-1.30;1.00;;;;;;5046949;28;20212;-55
2023/02/08 07:49:06;;;;;;;55.13;26.90;;;-1.30;1.00;;;;;;5051319;28;20219;-54
2023/02/08 07:51:32;;;;;;;45.30;27.70;;;-1.20;1.00;;;;;;5053401;28;20188;-54
2023/02/08 07:53:57;;;;;;;40.97;26.10;;;-1.00;1.00;;;;;;5059264;28;20234;-55
2023/02/08 07:56:23;;;;;;;43.70;27.03;;;-1.10;1.00;;;;;;5059524;28;20194;-55
2023/02/08 07:58:49;;;;;;;44.60;26.77;;;-1.00;1.00;;;;;;5043625;28;20200;-52
2023/02/08 08:01:14;;;;;;;47.03;27.73;;;-0.90;1.00;;;;;;5039694;28;20662;-52
2023/02/08 08:03:40;;;;;;;43.20;27.27;;;-0.90;1.00;;;;;;5047183;28;20189;-54
2023/02/08 08:06:06;;;;;;;39.10;26.30;;;-0.80;1.00;;;;;;5048329;28;20182;-52
2023/02/08 08:08:31;;;;;;;46.57;28.07;;;-0.70;1.00;;;;;;5042218;28;20212;-55
2023/02/08 08:10:57;;;;;;;47.37;26.87;;;-0.70;1.00;;;;;;5046193;28;20229;-54
2023/02/08 08:13:23;;;;;;;46.20;28.50;;;-0.60;1.00;;;;;;5052461;28;20220;-54
2023/02/08 08:15:48;;;;;;;44.47;27.53;;;-0.60;1.00;;;;;;5052214;28;20201;-53
2023/02/08 08:18:14;;;;;;;44.80;26.17;;;-0.50;1.00;;;;;;5053224;28;20281;-53
2023/02/08 08:20:40;;;;;;;50.30;28.27;;;-0.30;1.00;;;;;;5047682;28;20349;-54
2023/02/08 08:23:07;;;;;;;54.27;30.20;;;-0.30;1.00;;;;;;5048437;28;20537;-57
2023/02/08 08:25:33;;;;;;;47.57;27.07;;;-0.30;1.00;;;;;;5054289;28;20968;-52
2023/02/08 08:27:59;;;;;;;44.30;27.03;;;-0.20;1.00;;;;;;5051174;28;21012;-53
2023/02/08 08:30:25;;;;;;;42.63;27.23;;;-0.10;1.00;;;;;;5060413;28;20990;-55
2023/02/08 08:32:51;;;;;;;45.13;25.77;;;-0.10;1.00;;;;;;5060706;28;20452;-54
2023/02/08 08:35:17;;;;;;;43.77;27.57;;;0.00;1.00;;;;;;5063140;28;20197;-51
2023/02/08 08:37:42;;;;;;;43.80;25.87;;;0.00;1.00;;;;;;5042029;28;20257;-53
2023/02/08 08:40:09;;;;;;;38.63;23.73;;;0.10;1.00;;;;;;5051583;28;20510;-53
2023/02/08 08:42:35;;;;;;;42.10;26.83;;;0.00;1.00;;;;;;5047280;28;20551;-54
2023/02/08 08:45:02;;;;;;;43.93;26.60;;;0.10;1.00;;;;;;5049351;28;20521;-52
2023/02/08 08:47:27;;;;;;;40.13;24.53;;;1.30;1.00;;;;;;5053265;28;20453;-53
2023/02/08 08:49:53;;;;;;;41.40;24.80;;;0.20;1.00;;;;;;5055838;28;20448;-55
2023/02/08 08:52:19;;;;;;;46.83;26.00;;;0.30;1.00;;;;;;5062683;28;20185;-53
2023/02/08 08:54:44;;;;;;;42.30;25.07;;;0.40;1.00;;;;;;5047780;28;20293;-52
2023/02/08 08:57:10;;;;;;;34.53;23.63;;;0.70;1.00;;;;;;5050158;28;20447;-54
2023/02/08 08:59:36;;;;;;;35.23;24.70;;;1.00;1.00;;;;;;5038697;28;20198;-55
2023/02/08 09:02:01;;;;;;;38.43;25.67;;;1.20;1.00;;;;;;5050354;28;20177;-53
2023/02/08 09:04:27;;;;;;;40.53;25.40;;;1.40;1.00;;;;;;5047886;28;20251;-54
2023/02/08 09:06:53;;;;;;;35.83;22.63;;;1.50;1.00;;;;;;5046924;28;20311;-57
2023/02/08 09:09:20;;;;;;;40.47;25.00;;;1.50;1.00;;;;;;5048274;28;20543;-56
2023/02/08 09:11:46;;;;;;;34.73;23.90;;;1.40;1.00;;;;;;5046136;28;20536;-55
2023/02/08 09:14:11;;;;;;;35.93;23.40;;;1.30;1.00;;;;;;5044127;28;20598;-54
2023/02/08 09:16:40;;;;;;;32.63;22.03;;;1.20;1.00;;;;;;5046362;28;20280;-54
2023/02/08 09:19:07;;;;;;;35.23;22.40;;;1.20;1.00;;;;;;5047260;28;20230;-54
2023/02/08 09:21:35;;;;;;;40.63;22.90;;;1.20;1.00;;;;;;5041910;28;20462;-56
2023/02/08 09:24:02;;;;;;;37.57;24.23;;;1.20;1.00;;;;;;5047788;28;20540;-54
2023/02/08 09:26:28;;;;;;;40.73;23.67;;;1.20;1.00;;;;;;5049404;28;20667;-55
2023/02/08 09:28:54;;;;;;;36.30;21.97;;;1.30;1.00;;;;;;5056466;28;20448;-53
2023/02/08 09:31:28;;;;;;;37.70;22.90;;;1.40;1.00;;;;;;5043679;28;20610;-55
2023/02/08 09:33:56;;;;;;;32.73;20.03;;;1.60;1.00;;;;;;5045350;28;20189;-55
2023/02/08 09:36:25;;;;;;;35.90;20.90;;;1.60;1.00;;;;;;5054710;28;20443;-57
2023/02/08 09:38:56;;;;;;;31.10;20.80;;;1.70;1.00;;;;;;5060645;28;20448;-54
2023/02/08 09:41:31;;;;;;;31.30;19.40;;;1.70;1.00;;;;;;5044634;28;20476;-56
2023/02/08 09:44:14;;;;;;;31.27;19.50;;;1.70;1.00;;;;;;5047371;28;20462;-56
2023/02/08 09:46:47;;;;;;;39.83;20.10;;;1.70;1.00;;;;;;5049828;28;20513;-54
2023/02/08 09:49:22;;;;;;;32.93;20.67;;;1.70;1.00;;;;;;5048452;28;20443;-55
2023/02/08 09:52:02;;;;;;;31.40;19.87;;;1.80;1.00;;;;;;5047414;28;20455;-56
2023/02/08 09:54:33;;;;;;;27.90;19.90;;;2.00;1.00;;;;;;5046452;28;21910;-53
2023/02/08 09:57:03;;;;;;;30.60;18.73;;;2.00;1.00;;;;;;5045164;28;20909;-56
2023/02/08 09:59:32;;;;;;;27.27;18.07;;;2.10;1.00;;;;;;5051920;28;20505;-54
2023/02/08 10:02:10;;;;;;;33.20;20.00;;;2.20;1.00;;;;;;5046457;28;20475;-54
2023/02/08 10:05:06;;;;;;;29.23;19.40;;;2.30;1.00;;;;;;5056540;28;20559;-57
2023/02/08 10:07:33;;;;;;;27.80;18.60;;;2.30;1.00;;;;;;5055741;28;20464;-53
2023/02/08 10:10:03;;;;;;;32.47;19.00;;;2.40;1.00;;;;;;5048475;28;20956;-54
2023/02/08 10:12:37;;;;;;;30.53;19.60;;;2.50;1.00;;;;;;5053341;28;20437;-54
2023/02/08 10:15:30;;;;;;;29.83;19.30;;;2.40;1.00;;;;;;5050540;28;20475;-53
2023/02/08 10:18:17;;;;;;;29.20;20.03;;;2.60;1.00;;;;;;5044618;28;20452;-53
2023/02/08 10:21:04;;;;;;;31.67;19.70;;;2.70;1.00;;;;;;5049149;28;20445;-53
2023/02/08 10:23:32;;;;;;;31.57;18.43;;;2.70;1.00;;;;;;5052878;28;20973;-53
2023/02/08 10:25:58;;;;;;;27.40;18.50;;;2.70;1.00;;;;;;5054875;28;20784;-57
2023/02/08 10:28:47;;;;;;;37.00;20.30;;;2.90;1.00;;;;;;5052531;28;20582;-54
2023/02/08 10:31:33;;;;;;;34.63;21.87;;;2.80;1.00;;;;;;5053499;28;20214;-55
2023/02/08 10:34:51;;;;;;;30.20;19.40;;;3.00;1.00;;;;;;5049774;28;20478;-57
2023/02/08 10:37:37;;;;;;;31.73;20.60;;;3.00;1.00;;;;;;5025671;28;20458;-53
2023/02/08 10:40:43;;;;;;;29.30;17.23;;;3.10;1.00;;;;;;5014738;28;20812;-55
2023/02/08 10:43:39;;;;;;;29.60;18.50;;;3.10;1.00;;;;;;5051196;28;20847;-53
2023/02/08 10:46:26;;;;;;;33.63;19.93;;;3.10;1.00;;;;;;5055714;28;20466;-53
2023/02/08 10:49:32;;;;;;;29.37;18.80;;;3.10;1.00;;;;;;5049352;28;20478;-54
2023/02/08 10:51:57;;;;;;;31.70;18.30;;;3.20;1.00;;;;;;5065336;28;20437;-54
2023/02/08 10:54:23;;;;;;;35.60;19.70;;;3.30;1.00;;;;;;5062175;28;21093;-53
2023/02/08 10:57:13;;;;;;;33.40;19.93;;;3.40;1.00;;;;;;5051687;28;20218;-51
2023/02/08 10:59:53;;;;;;;29.40;20.17;;;3.40;1.00;;;;;;5043835;28;20187;-53
2023/02/08 11:02:25;;;;;;;27.50;18.33;;;3.40;1.00;;;;;;5055247;28;20433;-53
2023/02/08 11:05:33;;;;;;;28.03;17.43;;;3.40;1.00;;;;;;5050315;28;20586;-54
2023/02/08 11:08:11;;;;;;;34.43;19.20;;;3.40;1.00;;;;;;5037622;28;20448;-52
2023/02/08 11:10:44;;;;;;;28.10;18.27;;;3.40;1.00;;;;;;5056788;28;20489;-55
2023/02/08 11:13:12;;;;;;;29.70;18.20;;;3.50;1.00;;;;;;5046545;28;20835;-52
2023/02/08 11:15:42;;;;;;;30.27;18.57;;;3.60;1.00;;;;;;5049484;28;20457;-55
2023/02/08 11:18:37;;;;;;;28.70;18.03;;;3.70;1.00;;;;;;5058327;28;20428;-56
2023/02/08 11:21:10;;;;;;;31.10;18.20;;;3.90;1.00;;;;;;5056459;28;20867;-55
2023/02/08 11:23:41;;;;;;;27.00;17.53;;;3.90;1.00;;;;;;5054722;28;20460;-57
2023/02/08 11:26:22;;;;;;;28.20;18.30;;;3.90;1.00;;;;;;5053700;28;20477;-54
2023/02/08 11:29:35;;;;;;;26.10;15.47;;;3.90;1.00;;;;;;5040113;28;20492;-54
2023/02/08 11:32:13;;;;;;;28.40;18.77;;;3.90;1.00;;;;;;5048445;28;20449;-53
2023/02/08 11:34:39;;;;;;;27.17;16.40;;;4.00;1.00;;;;;;5044333;28;20445;-57
2023/02/08 11:37:31;;;;;;;27.90;16.07;;;4.00;1.00;;;;;;5052341;28;20801;-52
2023/02/08 11:39:58;;;;;;;39.10;17.63;;;4.10;1.00;;;;;;5048696;28;20230;-53
2023/02/08 11:42:25;;;;;;;30.70;18.57;;;4.10;99.90;;;;;;5051283;28;20865;-51
2023/02/08 11:44:52;;;;;;;26.57;17.33;;;4.10;1.00;;;;;;5050777;28;20471;-53
2023/02/08 11:47:24;;;;;;;24.00;16.47;;;4.00;1.00;;;;;;5044141;28;20778;-55
2023/02/08 11:49:55;;;;;;;31.20;17.00;;;4.00;1.00;;;;;;5054672;28;21226;-57
2023/02/08 11:52:30;;;;;;;30.27;19.47;;;4.20;1.00;;;;;;5058825;28;20564;-54
2023/02/08 11:55:13;;;;;;;28.43;18.47;;;4.30;99.90;;;;;;5054756;28;20430;-54
2023/02/08 11:57:59;;;;;;;26.50;15.73;;;4.40;99.90;;;;;;5048629;28;20466;-53
2023/02/08 12:00:34;;;;;;;24.87;16.37;;;4.50;99.90;;;;;;5044818;28;20464;-55
2023/02/08 12:03:41;;;;;;;25.23;15.90;;;4.50;99.90;;;;;;5044970;28;20453;-55
2023/02/08 12:06:25;;;;;;;27.97;18.60;;;4.60;99.90;;;;;;5043521;28;20629;-56
2023/02/08 12:09:17;;;;;;;29.27;19.37;;;4.50;99.90;;;;;;5050057;28;20456;-54
2023/02/08 12:11:45;;;;;;;24.40;16.93;;;4.60;99.90;;;;;;5055481;28;20475;-54
2023/02/08 12:14:38;;;;;;;29.47;14.87;;;4.60;99.90;;;;;;5047934;28;20543;-55
2023/02/08 12:17:20;;;;;;;23.10;14.10;;;4.60;99.90;;;;;;5045176;28;20453;-53
2023/02/08 12:20:07;;;;;;;24.30;14.60;;;4.60;99.90;;;;;;5054063;28;20882;-53
2023/02/08 12:22:39;;;;;;;24.43;14.57;;;4.60;99.90;;;;;;5050031;28;21282;-54
2023/02/08 12:25:20;;;;;;;24.77;15.40;;;4.50;99.90;;;;;;5048162;28;20469;-53
2023/02/08 12:28:04;;;;;;;28.03;16.10;;;4.40;99.90;;;;;;5058089;28;21091;-55
2023/02/08 12:30:32;;;;;;;26.03;16.20;;;4.30;99.90;;;;;;5049569;28;20425;-54
2023/02/08 12:33:16;;;;;;;23.70;15.70;;;4.30;99.90;;;;;;5056089;28;20437;-53
2023/02/08 12:36:18;;;;;;;23.93;14.70;;;4.30;99.90;;;;;;5054118;28;20461;-54
2023/02/08 12:42:46;;;;;;;26.77;15.17;;;4.50;99.90;;;;;;5068837;28;20884;-55
2023/02/08 12:45:42;;;;;;;23.30;15.90;;;4.70;99.90;;;;;;5055969;28;21173;-56
2023/02/08 12:48:35;;;;;;;27.50;17.30;;;4.60;99.90;;;;;;5052312;28;20447;-54
2023/02/08 12:51:27;;;;;;;23.00;15.13;;;4.60;99.90;;;;;;5063690;28;20803;-53
2023/02/08 12:54:13;;;;;;;25.17;13.90;;;4.80;99.90;;;;;;5043545;28;20558;-53
2023/02/08 12:56:44;;;;;;;20.77;13.70;;;4.60;99.90;;;;;;5049648;28;20428;-54
2023/02/08 12:59:24;;;;;;;27.93;16.30;;;4.60;99.90;;;;;;5049300;28;20416;-54
2023/02/08 13:01:56;;;;;;;23.20;14.70;;;4.50;99.90;;;;;;5058512;28;20854;-54
2023/02/08 13:04:52;;;;;;;19.63;13.27;;;4.50;99.90;;;;;;5061400;28;20484;-56
2023/02/08 13:07:38;;;;;;;24.50;14.27;;;4.40;99.90;;;;;;5041069;28;20447;-57
2023/02/08 13:10:25;;;;;;;23.43;13.73;;;4.60;99.90;;;;;;5046513;28;20960;-55